Aérodrome :







RETROUVEZ-NOUS SUR...

 
LOGIN :

S'inscrire | Disclaimer

   EN    FR    IT 

 









Légende :    VFR   VFR Marginal   IFR   IFR Intensif   IFR Très Intensif
Visi : 
Plafond : 
>= 8 km
>= 3000ft
5 à 8 km
1000 à 3000 ft
1500m à 5 km
500 à 1000 ft
800 à 1500m
200 à 500 ft
< 800m
< 200 ft
Symboles :   Orages  Brouillard  Fortes neiges  Fortes précipitations  Vent > 20 kt






- Altitude de l'aérodrome : 787 ft
- Code IATA : RUT


KRUT - Rutland - Southern Vermont Regional

DERNIER METAR :
  • 141208Z AUTO 00000KT 10SM FEW003 SCT013 BKN020 18/18 A2996 RMK AO2 $

METARs EXPIRÉS :
  • 141156Z AUTO 00000KT 10SM FEW013 SCT020 BKN110 18/18 A2995 RMK AO2 SLP134 60003 70003 T01830183 10183 20178 53014 $
  • 141107Z AUTO 00000KT 10SM BKN013 18/18 A2995 RMK AO2 $
  • 141056Z AUTO 00000KT 10SM SCT015 18/18 A2994 RMK AO2 RAE01 SLP128 P0000 T01780178 $
  • 141042Z AUTO 00000KT 10SM BKN015 18/18 A2994 RMK AO2 RAE01 P0000 $
  • 141018Z AUTO 00000KT 10SM BKN013 18/18 A2993 RMK AO2 RAE01 P0000 $
  • 140956Z AUTO 05003KT 4SM -RA BR SCT011 SCT110 18/18 A2991 RMK AO2 SLP120 P0001 T01780178 $

TAF KRUT
Valide du 14 à 12h jusqu'au 15 à 12h UTC


141141Z 1412/1512 00000KT P6SM VCSH SCT025 OVC100
FM141500 00000KT P6SM VCSH BKN080
FM142300 VRB04KT P6SM SCT060
FM150700 12004KT P6SM OVC015
FIR KZBW / Amérique du Nord



MET'MAP, la Météo Aéronautique d'un coup d'oeil ! - Copyright ORBIFLY Décembre 2007 - Disclaimer

ORBIFLY MET'MAP TEAM :

Programmation & Développement : Alexandra Zaïnal
Sur une idée originale de : Baudouin d'Aumeries
Assistance à la programmation : Marc-Olivier Méhu
Soutien technique & logistique : Manuel Goepfert

Contact : metmap@orbifly.com




SOURCES & CREDITS :

   NOAA